createdAt,value
2023-03-08T00:00:23.654Z,98299.84
2023-03-08T00:01:04.592Z,98288.19
2023-03-08T00:01:44.810Z,98289.59
2023-03-08T00:02:25.548Z,98278.75
2023-03-08T00:03:05.722Z,98289.03
2023-03-08T00:03:46.577Z,98311.78
2023-03-08T00:04:26.718Z,98312.69
2023-03-08T00:05:10.731Z,98299.41
2023-03-08T00:05:56.001Z,98281.16
2023-03-08T00:06:36.651Z,98294.88
2023-03-08T00:07:16.623Z,98310.09
2023-03-08T00:08:00.630Z,98304.16
2023-03-08T00:08:40.673Z,98297.16
2023-03-08T00:09:21.532Z,98312.03
2023-03-08T00:10:01.650Z,98315.09
2023-03-08T00:10:41.690Z,98288.94
2023-03-08T00:11:22.636Z,98308.31
2023-03-08T00:12:02.616Z,98295.88
2023-03-08T00:12:42.674Z,98323.88
2023-03-08T00:13:23.573Z,98300.13
2023-03-08T00:14:04.638Z,98318.66
2023-03-08T00:14:45.521Z,98316.13
2023-03-08T00:15:25.697Z,98293.63
2023-03-08T00:16:11.630Z,98319.88
2023-03-08T00:16:51.682Z,98298.50
2023-03-08T00:17:32.543Z,98305.31
2023-03-08T00:18:13.652Z,98327.38
2023-03-08T00:18:54.524Z,98319.81
2023-03-08T00:19:34.687Z,98324.63
2023-03-08T00:20:17.524Z,98300.84
2023-03-08T00:21:11.872Z,98313.34
2023-03-08T00:21:52.521Z,98293.06
2023-03-08T00:22:39.528Z,98296.72
2023-03-08T00:23:33.509Z,98316.31
2023-03-08T00:24:27.555Z,98313.72
2023-03-08T00:25:23.518Z,98310.44
2023-03-08T00:26:17.520Z,98313.78
2023-03-08T00:27:11.521Z,98302.22
2023-03-08T00:27:58.540Z,98309.84
2023-03-08T00:28:32.660Z,98299.31
2023-03-08T00:29:19.598Z,98312.34
2023-03-08T00:29:53.624Z,98294.88
2023-03-08T00:30:40.534Z,98298.06
2023-03-08T00:31:18.733Z,98286.72
2023-03-08T00:32:05.540Z,98294.41
2023-03-08T00:32:39.766Z,98305.97
2023-03-08T00:33:19.569Z,98279.44
2023-03-08T00:34:00.620Z,98316.44
2023-03-08T00:34:41.551Z,98309.09
2023-03-08T00:35:21.678Z,98268.47
2023-03-08T00:36:07.502Z,98317.38
2023-03-08T00:36:48.782Z,98297.78
2023-03-08T00:37:29.547Z,98288.44
2023-03-08T00:38:09.658Z,98292.16
2023-03-08T00:38:50.528Z,98291.22
2023-03-08T00:39:30.619Z,98288.34
2023-03-08T00:40:12.514Z,98313.00
2023-03-08T00:40:52.704Z,98303.19
2023-03-08T00:41:32.495Z,98310.53
2023-03-08T00:42:12.615Z,98319.75
2023-03-08T00:42:52.478Z,98310.16
2023-03-08T00:43:47.500Z,98306.25
2023-03-08T00:44:27.549Z,98294.25
2023-03-08T00:45:07.624Z,98315.31
2023-03-08T00:45:48.784Z,98317.63
2023-03-08T00:46:32.663Z,98276.47
2023-03-08T00:47:12.499Z,98296.34
2023-03-08T00:47:52.595Z,98296.88
2023-03-08T00:48:33.490Z,98327.38
2023-03-08T00:49:13.853Z,98303.56
2023-03-08T00:49:53.500Z,98308.53
2023-03-08T00:50:33.628Z,98327.69
2023-03-08T00:51:14.513Z,98311.41
2023-03-08T00:51:55.660Z,98339.88
2023-03-08T00:52:35.502Z,98304.34
2023-03-08T00:53:15.590Z,98327.38
2023-03-08T00:53:56.500Z,98328.66
2023-03-08T00:54:37.605Z,98325.91
2023-03-08T00:55:17.504Z,98316.97
2023-03-08T00:56:00.908Z,98328.19
2023-03-08T00:56:40.469Z,98337.78
2023-03-08T00:57:20.608Z,98324.91
2023-03-08T00:58:01.502Z,98338.13
2023-03-08T00:58:44.638Z,98322.16
2023-03-08T00:59:24.498Z,98318.75
2023-03-08T01:00:08.250Z,98313.16
2023-03-08T01:00:49.817Z,98332.00
2023-03-08T01:01:30.586Z,98313.16
2023-03-08T01:02:11.491Z,98321.88
2023-03-08T01:02:51.628Z,98332.00
2023-03-08T01:03:32.500Z,98307.75
2023-03-08T01:04:13.173Z,98324.78
2023-03-08T01:04:53.480Z,98304.44
2023-03-08T01:05:33.598Z,98311.78
2023-03-08T01:06:17.500Z,98307.88
2023-03-08T01:06:58.572Z,98316.22
2023-03-08T01:07:39.485Z,98309.50
2023-03-08T01:08:20.565Z,98327.84
2023-03-08T01:09:01.475Z,98288.56
2023-03-08T01:09:41.599Z,98328.97
2023-03-08T01:10:22.474Z,98333.53
2023-03-08T01:11:06.664Z,98305.47
2023-03-08T01:11:47.501Z,98331.38
2023-03-08T01:12:27.564Z,98312.34
2023-03-08T01:13:08.460Z,98328.44
2023-03-08T01:13:48.630Z,98329.28
2023-03-08T01:14:29.464Z,98312.03
2023-03-08T01:15:12.573Z,98324.53
2023-03-08T01:15:53.457Z,98352.50
2023-03-08T01:16:37.579Z,98321.53
2023-03-08T01:17:17.538Z,98325.00
2023-03-08T01:17:57.562Z,98351.41
2023-03-08T01:18:38.466Z,98343.47
2023-03-08T01:19:19.757Z,98329.47
2023-03-08T01:19:59.499Z,98316.72
2023-03-08T01:20:40.611Z,98346.72
2023-03-08T01:21:21.473Z,98336.25
2023-03-08T01:22:01.552Z,98335.03
2023-03-08T01:22:42.505Z,98338.38
2023-03-08T01:23:22.584Z,98319.88
2023-03-08T01:24:03.493Z,98310.94
2023-03-08T01:24:43.561Z,98321.63
2023-03-08T01:25:24.479Z,98325.25
2023-03-08T01:26:13.576Z,98322.06
2023-03-08T01:26:54.515Z,98318.44
2023-03-08T01:27:34.598Z,98322.19
2023-03-08T01:28:14.497Z,98327.00
2023-03-08T01:28:55.539Z,98302.94
2023-03-08T01:29:35.526Z,98321.59
2023-03-08T01:30:16.562Z,98322.56
2023-03-08T01:30:57.462Z,98313.53
2023-03-08T01:31:38.606Z,98312.44
2023-03-08T01:32:19.475Z,98326.22
2023-03-08T01:32:59.549Z,98332.25
2023-03-08T01:33:40.491Z,98342.47
2023-03-08T01:34:20.570Z,98339.72
2023-03-08T01:35:02.450Z,98336.03
2023-03-08T01:35:44.642Z,98314.63
2023-03-08T01:36:29.469Z,98322.78
2023-03-08T01:37:09.568Z,98345.03
2023-03-08T01:37:50.467Z,98332.22
2023-03-08T01:38:30.588Z,98349.56
2023-03-08T01:39:11.467Z,98313.34
2023-03-08T01:39:51.539Z,98345.41
2023-03-08T01:40:31.474Z,98347.66
2023-03-08T01:41:12.521Z,98327.59
2023-03-08T01:41:53.420Z,98347.72
2023-03-08T01:42:34.544Z,98338.56
2023-03-08T01:43:39.446Z,98357.78
2023-03-08T01:44:33.491Z,98346.88
2023-03-08T01:46:27.457Z,98365.41
2023-03-08T01:47:31.588Z,98362.50
2023-03-08T01:48:26.423Z,98338.72
2023-03-08T01:49:32.440Z,98343.31
2023-03-08T01:50:19.444Z,98368.81
2023-03-08T01:50:59.538Z,98339.31
2023-03-08T01:52:04.422Z,98370.13
2023-03-08T01:52:53.685Z,98363.50
2023-03-08T01:53:33.429Z,98355.31
2023-03-08T01:54:22.527Z,98378.09
2023-03-08T01:55:10.445Z,98353.34
2023-03-08T01:55:51.524Z,98356.47
2023-03-08T01:56:32.428Z,98370.16
2023-03-08T01:57:46.554Z,98371.56
2023-03-08T01:58:26.402Z,98369.03
2023-03-08T01:59:07.717Z,98371.84
2023-03-08T01:59:48.403Z,98362.66
2023-03-08T02:00:31.436Z,98365.66
2023-03-08T02:01:05.577Z,98374.53
2023-03-08T02:01:52.411Z,98373.31
2023-03-08T02:02:31.530Z,98390.69
2023-03-08T02:03:19.416Z,98399.34
2023-03-08T02:03:54.534Z,98395.59
2023-03-08T02:04:42.442Z,98393.91
2023-03-08T02:05:17.572Z,98387.88
2023-03-08T02:05:57.463Z,98394.19
2023-03-08T02:06:37.489Z,98396.59
2023-03-08T02:07:17.403Z,98390.31
2023-03-08T02:07:57.546Z,98380.97
2023-03-08T02:08:39.414Z,98389.38
2023-03-08T02:09:19.515Z,98383.91
2023-03-08T02:10:00.444Z,98402.78
2023-03-08T02:10:41.508Z,98397.56
2023-03-08T02:11:23.444Z,98410.94
2023-03-08T02:12:07.498Z,98395.38
2023-03-08T02:12:48.396Z,98395.03
2023-03-08T02:13:28.494Z,98408.31
2023-03-08T02:14:09.392Z,98399.75
2023-03-08T02:14:50.504Z,98395.84
2023-03-08T02:15:31.431Z,98389.44
2023-03-08T02:16:15.678Z,98385.22
2023-03-08T02:16:55.441Z,98384.19
2023-03-08T02:17:35.514Z,98398.31
2023-03-08T02:18:15.401Z,98400.59
2023-03-08T02:19:04.493Z,98405.19
2023-03-08T02:20:00.392Z,98402.19
2023-03-08T02:20:45.483Z,98398.31
2023-03-08T02:21:26.402Z,98392.91
2023-03-08T02:22:25.473Z,98388.41
2023-03-08T02:23:34.411Z,98399.53
2023-03-08T02:24:34.390Z,98403.00
2023-03-08T02:25:31.448Z,98380.41
2023-03-08T02:26:25.397Z,98387.41
2023-03-08T02:27:39.409Z,98383.84
2023-03-08T02:28:38.400Z,98394.28
2023-03-08T02:29:32.393Z,98392.31
2023-03-08T02:30:30.408Z,98399.16
2023-03-08T02:31:25.390Z,98376.50
2023-03-08T02:32:20.451Z,98413.41
2023-03-08T02:33:00.414Z,98407.09
2023-03-08T02:33:40.484Z,98410.47
2023-03-08T02:34:20.389Z,98393.84
2023-03-08T02:35:00.504Z,98389.97
2023-03-08T02:35:42.413Z,98393.06
2023-03-08T02:36:22.492Z,98393.16
2023-03-08T02:37:02.389Z,98384.03
2023-03-08T02:37:42.486Z,98406.97
2023-03-08T02:38:25.414Z,98390.81
2023-03-08T02:39:05.607Z,98404.44
2023-03-08T02:39:45.367Z,98401.97
2023-03-08T02:40:25.492Z,98380.44
2023-03-08T02:41:06.389Z,98376.66
2023-03-08T02:41:46.483Z,98377.50
2023-03-08T02:42:26.403Z,98377.78
2023-03-08T02:43:06.480Z,98398.59
2023-03-08T02:43:46.406Z,98398.13
2023-03-08T02:44:26.481Z,98403.41
2023-03-08T02:45:06.397Z,98404.28
2023-03-08T02:45:46.492Z,98405.75
2023-03-08T02:46:26.371Z,98390.78
2023-03-08T02:47:06.467Z,98384.94
2023-03-08T02:47:46.396Z,98412.34
2023-03-08T02:48:26.542Z,98402.66
2023-03-08T02:49:06.435Z,98404.28
2023-03-08T02:49:46.466Z,98387.41
2023-03-08T02:50:27.368Z,98379.47
2023-03-08T02:51:07.472Z,98416.69
2023-03-08T02:51:47.367Z,98404.84
2023-03-08T02:52:27.469Z,98418.13
2023-03-08T02:53:07.363Z,98409.06
2023-03-08T02:53:47.462Z,98385.44
2023-03-08T02:54:27.426Z,98396.22
2023-03-08T02:55:07.489Z,98406.44
2023-03-08T02:55:47.358Z,98405.13
2023-03-08T02:56:27.457Z,98398.44
2023-03-08T02:57:07.358Z,98394.38
2023-03-08T02:57:47.451Z,98389.25
2023-03-08T02:58:28.355Z,98404.25
2023-03-08T02:59:08.531Z,98368.84
2023-03-08T02:59:48.376Z,98383.66
2023-03-08T03:00:28.503Z,98391.84
2023-03-08T03:01:09.397Z,98410.97
2023-03-08T03:01:49.468Z,98407.84
2023-03-08T03:02:52.358Z,98411.50
2023-03-08T03:03:46.361Z,98394.50
2023-03-08T03:04:44.340Z,98407.78
2023-03-08T03:05:25.363Z,98398.84
2023-03-08T03:06:27.379Z,98391.84
2023-03-08T03:07:21.358Z,98394.81
2023-03-08T03:08:15.368Z,98404.88
2023-03-08T03:09:09.367Z,98397.19
2023-03-08T03:10:03.349Z,98408.00
2023-03-08T03:10:50.359Z,98408.31
2023-03-08T03:11:28.443Z,98421.59
2023-03-08T03:12:15.336Z,98414.97
2023-03-08T03:12:49.480Z,98405.41
2023-03-08T03:13:36.347Z,98388.81
2023-03-08T03:14:10.441Z,98398.38
2023-03-08T03:14:57.343Z,98398.09
2023-03-08T03:15:31.438Z,98409.06
2023-03-08T03:16:21.358Z,98397.59
2023-03-08T03:17:01.431Z,98399.28
2023-03-08T03:17:43.334Z,98388.63
2023-03-08T03:18:23.414Z,98410.22
2023-03-08T03:19:04.304Z,98399.53
2023-03-08T03:19:45.450Z,98388.66
2023-03-08T03:20:26.345Z,98414.06
2023-03-08T03:21:18.431Z,98397.47
2023-03-08T03:21:59.368Z,98403.03
2023-03-08T03:22:39.490Z,98417.75
2023-03-08T03:23:19.327Z,98390.44
2023-03-08T03:24:01.424Z,98418.53
2023-03-08T03:24:41.328Z,98404.59
2023-03-08T03:25:21.416Z,98402.78
2023-03-08T03:26:01.324Z,98400.59
2023-03-08T03:26:41.467Z,98417.63
2023-03-08T03:27:21.406Z,98401.81
2023-03-08T03:28:02.505Z,98430.41
2023-03-08T03:28:42.313Z,98423.34
2023-03-08T03:29:22.505Z,98407.16
2023-03-08T03:30:02.367Z,98410.09
2023-03-08T03:30:56.316Z,98417.41
2023-03-08T03:31:50.317Z,98429.78
2023-03-08T03:32:37.364Z,98412.13
2023-03-08T03:33:11.415Z,98417.53
2023-03-08T03:33:59.327Z,98444.06
2023-03-08T03:34:33.427Z,98436.53
2023-03-08T03:35:20.326Z,98433.72
2023-03-08T03:35:54.520Z,98409.34
2023-03-08T03:36:41.366Z,98452.19
2023-03-08T03:37:15.470Z,98456.69
2023-03-08T03:38:02.333Z,98459.84
2023-03-08T03:38:36.390Z,98424.06
2023-03-08T03:39:23.331Z,98454.78
2023-03-08T03:39:57.426Z,98443.63
2023-03-08T03:40:44.340Z,98455.69
2023-03-08T03:41:22.417Z,98465.47
2023-03-08T03:42:09.333Z,98440.91
2023-03-08T03:42:43.440Z,98458.41
2023-03-08T03:43:24.322Z,98435.63
2023-03-08T03:44:05.392Z,98442.28
2023-03-08T03:44:46.294Z,98457.81
2023-03-08T03:45:26.376Z,98435.47
2023-03-08T03:46:09.337Z,98441.97
2023-03-08T03:46:49.680Z,98438.50
2023-03-08T03:47:29.323Z,98467.28
2023-03-08T03:48:09.410Z,98447.94
2023-03-08T03:48:50.327Z,98478.53
2023-03-08T03:49:30.738Z,98477.78
2023-03-08T03:50:11.285Z,98484.22
2023-03-08T03:50:51.536Z,98462.56
2023-03-08T03:51:32.301Z,98481.69
2023-03-08T03:52:12.388Z,98465.22
2023-03-08T03:52:52.319Z,98465.94
2023-03-08T03:53:33.403Z,98477.81
2023-03-08T03:54:13.331Z,98479.75
2023-03-08T03:54:53.574Z,98471.72
2023-03-08T03:55:33.329Z,98462.41
2023-03-08T03:56:27.395Z,98482.66
2023-03-08T03:57:08.288Z,98464.03
2023-03-08T03:57:48.403Z,98453.28
2023-03-08T03:58:29.287Z,98479.25
2023-03-08T03:59:09.378Z,98486.69
2023-03-08T03:59:50.329Z,98482.84
2023-03-08T04:00:30.405Z,98475.94
2023-03-08T04:01:20.307Z,98481.28
2023-03-08T04:02:00.396Z,98477.75
2023-03-08T04:02:41.335Z,98487.47
2023-03-08T04:03:21.455Z,98478.50
2023-03-08T04:04:02.345Z,98462.69
2023-03-08T04:04:42.386Z,98485.19
2023-03-08T04:05:23.305Z,98479.50
2023-03-08T04:06:36.337Z,98501.56
2023-03-08T04:07:30.312Z,98507.63
2023-03-08T04:08:24.295Z,98477.09
2023-03-08T04:09:22.292Z,98474.22
2023-03-08T04:10:16.287Z,98470.44
2023-03-08T04:10:57.300Z,98473.19
2023-03-08T04:11:45.376Z,98484.84
2023-03-08T04:12:25.285Z,98486.41
2023-03-08T04:13:05.445Z,98500.56
2023-03-08T04:13:46.314Z,98507.00
2023-03-08T04:14:27.378Z,98517.53
2023-03-08T04:15:07.291Z,98497.69
2023-03-08T04:15:47.491Z,98510.28
2023-03-08T04:16:32.371Z,98504.00
2023-03-08T04:17:13.388Z,98511.25
2023-03-08T04:17:53.271Z,98495.50
2023-03-08T04:18:33.354Z,98502.75
2023-03-08T04:19:18.283Z,98512.47
2023-03-08T04:19:58.408Z,98513.22
2023-03-08T04:20:39.272Z,98522.16
2023-03-08T04:21:20.393Z,98515.38
2023-03-08T04:22:00.290Z,98513.22
2023-03-08T04:22:40.379Z,98498.44
2023-03-08T04:23:20.279Z,98505.72
2023-03-08T04:24:01.361Z,98510.06
2023-03-08T04:24:41.271Z,98487.94
2023-03-08T04:25:21.436Z,98518.06
2023-03-08T04:26:01.277Z,98514.22
2023-03-08T04:26:41.363Z,98517.22
2023-03-08T04:27:21.337Z,98501.88
2023-03-08T04:28:01.375Z,98508.28
2023-03-08T04:28:42.270Z,98513.03
2023-03-08T04:29:22.369Z,98499.56
2023-03-08T04:30:02.255Z,98516.38
2023-03-08T04:30:42.364Z,98502.94
2023-03-08T04:31:32.305Z,98524.41
2023-03-08T04:32:13.459Z,98504.28
2023-03-08T04:32:53.326Z,98512.56
2023-03-08T04:33:33.347Z,98520.28
2023-03-08T04:34:14.288Z,98506.13
2023-03-08T04:34:54.424Z,98518.34
2023-03-08T04:35:35.316Z,98528.03
2023-03-08T04:36:16.709Z,98514.22
2023-03-08T04:36:56.265Z,98518.81
2023-03-08T04:37:37.084Z,98494.25
2023-03-08T04:38:18.313Z,98506.47
2023-03-08T04:38:59.362Z,98519.78
2023-03-08T04:39:40.265Z,98518.47
2023-03-08T04:40:20.365Z,98513.88
2023-03-08T04:41:18.292Z,98526.34
2023-03-08T04:42:12.269Z,98506.25
2023-03-08T04:43:06.244Z,98524.03
2023-03-08T04:43:58.291Z,98518.09
2023-03-08T04:44:38.357Z,98507.94
2023-03-08T04:45:18.265Z,98533.38
2023-03-08T04:45:58.356Z,98514.22
2023-03-08T04:46:39.262Z,98529.47
2023-03-08T04:47:19.450Z,98537.22
2023-03-08T04:47:59.250Z,98515.69
2023-03-08T04:48:40.394Z,98530.44
2023-03-08T04:49:20.279Z,98500.78
2023-03-08T04:50:00.331Z,98525.84
2023-03-08T04:50:40.230Z,98502.13
2023-03-08T04:51:22.390Z,98532.13
2023-03-08T04:52:02.257Z,98529.97
2023-03-08T04:52:42.594Z,98524.53
2023-03-08T04:53:22.248Z,98529.00
2023-03-08T04:54:04.392Z,98516.63
2023-03-08T04:54:45.260Z,98524.53
2023-03-08T04:55:25.381Z,98526.84
2023-03-08T04:56:07.231Z,98541.09
2023-03-08T04:56:47.357Z,98535.19
2023-03-08T04:57:28.239Z,98537.94
2023-03-08T04:58:08.357Z,98521.13
2023-03-08T04:58:56.235Z,98537.94
2023-03-08T04:59:30.400Z,98540.13
2023-03-08T05:00:12.274Z,98544.25
2023-03-08T05:00:52.559Z,98545.72
2023-03-08T05:01:39.248Z,98520.63
2023-03-08T05:02:13.128Z,98518.59
2023-03-08T05:03:01.236Z,98510.72
2023-03-08T05:03:34.978Z,98532.41
2023-03-08T05:04:26.252Z,98544.75
2023-03-08T05:05:00.058Z,98545.47
2023-03-08T05:05:41.264Z,98534.81
2023-03-08T05:06:16.383Z,98531.91
2023-03-08T05:06:50.989Z,98521.38
2023-03-08T05:07:31.215Z,98515.22
2023-03-08T05:08:05.435Z,98521.03
2023-03-08T05:08:39.031Z,98522.44
2023-03-08T05:09:20.225Z,98542.31
2023-03-08T05:09:54.356Z,98522.94
2023-03-08T05:10:28.009Z,98541.09
2023-03-08T05:11:11.252Z,98526.94
2023-03-08T05:11:45.377Z,98537.22
2023-03-08T05:12:18.998Z,98539.91
2023-03-08T05:12:59.206Z,98533.38
2023-03-08T05:13:36.372Z,98539.41
2023-03-08T05:14:10.044Z,98519.56
2023-03-08T05:14:51.220Z,98529.22
2023-03-08T05:15:25.337Z,98547.88
2023-03-08T05:15:59.381Z,98542.28
2023-03-08T05:16:39.301Z,98516.53
2023-03-08T05:17:13.495Z,98538.75
2023-03-08T05:17:46.997Z,98545.69
2023-03-08T05:18:28.430Z,98542.53
2023-03-08T05:19:02.361Z,98526.56
2023-03-08T05:19:35.999Z,98545.34
2023-03-08T05:20:17.214Z,98527.91
2023-03-08T05:21:10.313Z,98551.88
2023-03-08T05:21:50.236Z,98548.59
2023-03-08T05:22:30.300Z,98551.03
2023-03-08T05:23:11.212Z,98531.66
2023-03-08T05:23:52.350Z,98532.97
2023-03-08T05:24:34.265Z,98556.97
2023-03-08T05:25:15.320Z,98523.44
2023-03-08T05:26:02.200Z,98553.72
2023-03-08T05:26:43.348Z,98523.91
2023-03-08T05:27:23.281Z,98553.09
2023-03-08T05:28:04.282Z,98548.97
2023-03-08T05:28:46.187Z,98567.75
2023-03-08T05:29:26.356Z,98537.72
2023-03-08T05:30:06.228Z,98553.69
2023-03-08T05:30:47.371Z,98566.06
2023-03-08T05:31:29.243Z,98531.19
2023-03-08T05:32:10.335Z,98569.69
2023-03-08T05:32:50.235Z,98552.38
2023-03-08T05:33:30.365Z,98556.72
2023-03-08T05:34:10.207Z,98535.28
2023-03-08T05:34:52.353Z,98552.59
2023-03-08T05:35:32.256Z,98564.59
2023-03-08T05:36:13.305Z,98558.19
2023-03-08T05:36:53.211Z,98576.00
2023-03-08T05:37:33.324Z,98559.53
2023-03-08T05:38:13.251Z,98574.78
2023-03-08T05:38:54.787Z,98573.81
2023-03-08T05:39:37.212Z,98560.38
2023-03-08T05:40:18.363Z,98561.56
2023-03-08T05:40:59.188Z,98573.91
2023-03-08T05:41:39.282Z,98584.09
2023-03-08T05:42:19.180Z,98560.50
2023-03-08T05:43:01.278Z,98589.31
2023-03-08T05:43:42.224Z,98581.78
2023-03-08T05:44:23.331Z,98569.84
2023-03-08T05:45:03.251Z,98578.78
2023-03-08T05:45:43.836Z,98560.50
2023-03-08T05:46:26.215Z,98558.78
2023-03-08T05:47:07.383Z,98560.50
2023-03-08T05:47:47.185Z,98591.72
2023-03-08T05:48:27.326Z,98570.78
2023-03-08T05:49:07.199Z,98569.34
2023-03-08T05:49:47.258Z,98564.09
2023-03-08T05:50:27.195Z,98583.50
2023-03-08T05:51:17.295Z,98592.00
2023-03-08T05:51:57.209Z,98590.03
2023-03-08T05:52:37.470Z,98572.00
2023-03-08T05:53:17.192Z,98582.28
2023-03-08T05:53:57.296Z,98586.66
2023-03-08T05:54:37.217Z,98571.66
2023-03-08T05:55:18.275Z,98572.59
2023-03-08T05:55:59.190Z,98574.53
2023-03-08T05:56:39.368Z,98589.81
2023-03-08T05:57:19.171Z,98572.84
2023-03-08T05:57:59.322Z,98588.94
2023-03-08T05:58:40.486Z,98558.31
2023-03-08T05:59:23.488Z,98583.16
2023-03-08T06:00:03.178Z,98576.94
2023-03-08T06:00:43.276Z,98562.69
2023-03-08T06:01:27.155Z,98579.75
2023-03-08T06:02:08.365Z,98572.38
2023-03-08T06:02:49.166Z,98592.09
2023-03-08T06:03:30.517Z,98577.69
2023-03-08T06:04:12.151Z,98591.50
2023-03-08T06:04:52.278Z,98572.38
2023-03-08T06:05:40.208Z,98599.50
2023-03-08T06:06:14.291Z,98596.34
2023-03-08T06:07:01.155Z,98601.91
2023-03-08T06:07:35.334Z,98590.88
2023-03-08T06:08:22.142Z,98579.63
2023-03-08T06:08:56.433Z,98575.03
2023-03-08T06:09:43.212Z,98584.59
2023-03-08T06:10:17.302Z,98574.91
2023-03-08T06:11:04.202Z,98600.34
2023-03-08T06:11:38.239Z,98572.59
2023-03-08T06:12:25.134Z,98590.75
2023-03-08T06:12:59.276Z,98578.53
2023-03-08T06:13:47.142Z,98584.44
2023-03-08T06:14:21.401Z,98598.66
2023-03-08T06:15:08.146Z,98607.97
2023-03-08T06:15:42.235Z,98612.34
2023-03-08T06:16:29.220Z,98582.19
2023-03-08T06:17:03.310Z,98596.06
2023-03-08T06:17:50.146Z,98590.03
2023-03-08T06:18:24.352Z,98610.16
2023-03-08T06:19:11.141Z,98581.31
2023-03-08T06:19:45.228Z,98608.44
2023-03-08T06:20:32.140Z,98607.34
2023-03-08T06:21:24.260Z,98611.59
2023-03-08T06:22:06.164Z,98586.88
2023-03-08T06:22:46.275Z,98616.19
2023-03-08T06:23:27.144Z,98604.06
2023-03-08T06:24:07.244Z,98595.94
2023-03-08T06:24:47.166Z,98612.31
2023-03-08T06:25:27.335Z,98617.16
2023-03-08T06:26:08.179Z,98602.03
2023-03-08T06:26:48.310Z,98611.34
2023-03-08T06:27:29.180Z,98610.66
2023-03-08T06:28:09.260Z,98622.25
2023-03-08T06:28:50.126Z,98618.16
2023-03-08T06:29:30.237Z,98622.50
2023-03-08T06:30:11.149Z,98629.31
2023-03-08T06:30:52.352Z,98604.56
2023-03-08T06:31:33.182Z,98626.16
2023-03-08T06:32:14.262Z,98601.41
2023-03-08T06:32:54.252Z,98628.06
2023-03-08T06:33:37.414Z,98618.38
2023-03-08T06:34:19.113Z,98615.22
2023-03-08T06:34:59.234Z,98603.84
2023-03-08T06:35:40.168Z,98622.00
2023-03-08T06:36:28.288Z,98622.72
2023-03-08T06:37:08.135Z,98622.72
2023-03-08T06:37:48.297Z,98618.00
2023-03-08T06:38:29.739Z,98621.25
2023-03-08T06:39:11.301Z,98614.25
2023-03-08T06:39:51.131Z,98619.59
2023-03-08T06:40:31.221Z,98625.16
2023-03-08T06:41:13.121Z,98626.88
2023-03-08T06:41:53.230Z,98629.91
2023-03-08T06:42:41.214Z,98627.09
2023-03-08T06:43:22.239Z,98614.72
2023-03-08T06:44:03.168Z,98609.50
2023-03-08T06:44:43.224Z,98610.38
2023-03-08T06:45:23.128Z,98598.38
2023-03-08T06:46:04.291Z,98602.13
2023-03-08T06:46:44.109Z,98624.88
2023-03-08T06:47:25.288Z,98613.88
2023-03-08T06:48:05.160Z,98603.72
2023-03-08T06:48:46.242Z,98634.13
2023-03-08T06:49:26.167Z,98615.06
2023-03-08T06:50:06.244Z,98615.91
2023-03-08T06:50:47.121Z,98632.66
2023-03-08T06:51:28.209Z,98626.06
2023-03-08T06:52:08.109Z,98609.16
2023-03-08T06:52:48.217Z,98632.31
2023-03-08T06:53:28.097Z,98611.34
2023-03-08T06:54:08.209Z,98618.16
2023-03-08T06:54:48.136Z,98625.38
2023-03-08T06:55:29.275Z,98611.34
2023-03-08T06:56:10.122Z,98628.66
2023-03-08T06:56:52.293Z,98647.91
2023-03-08T06:57:32.113Z,98623.59
2023-03-08T06:58:13.207Z,98647.44
2023-03-08T06:58:53.116Z,98632.06
2023-03-08T06:59:34.196Z,98639.69
2023-03-08T07:00:16.167Z,98621.97
2023-03-08T07:00:56.259Z,98633.25
2023-03-08T07:01:43.178Z,98636.06
2023-03-08T07:02:42.780Z,98640.06
2023-03-08T07:03:24.230Z,98638.13
2023-03-08T07:04:06.150Z,98636.31
2023-03-08T07:04:48.571Z,98644.53
2023-03-08T07:05:31.133Z,98655.69
2023-03-08T07:06:16.290Z,98653.75
2023-03-08T07:06:56.135Z,98654.84
2023-03-08T07:07:37.185Z,98664.41
2023-03-08T07:08:17.101Z,98658.59
2023-03-08T07:08:58.233Z,98654.13
2023-03-08T07:09:38.124Z,98663.09
2023-03-08T07:10:20.643Z,98625.88
2023-03-08T07:11:02.133Z,98630.50
2023-03-08T07:11:43.403Z,98637.53
2023-03-08T07:12:23.168Z,98650.16
2023-03-08T07:13:03.735Z,98671.47
2023-03-08T07:13:46.067Z,98649.91
2023-03-08T07:14:26.192Z,98664.41
2023-03-08T07:15:07.095Z,98668.31
2023-03-08T07:15:48.233Z,98656.81
2023-03-08T07:16:28.121Z,98670.72
2023-03-08T07:17:08.341Z,98655.22
2023-03-08T07:17:50.084Z,98673.41
2023-03-08T07:18:31.178Z,98669.03
2023-03-08T07:19:11.072Z,98671.47
2023-03-08T07:19:52.175Z,98646.75
2023-03-08T07:20:34.070Z,98654.25
2023-03-08T07:21:15.258Z,98658.72
2023-03-08T07:21:55.112Z,98676.06
2023-03-08T07:22:37.211Z,98663.00
2023-03-08T07:23:17.078Z,98657.66
2023-03-08T07:23:59.204Z,98657.16
2023-03-08T07:24:39.066Z,98655.69
2023-03-08T07:25:25.148Z,98646.00
2023-03-08T07:26:05.081Z,98671.91
2023-03-08T07:26:45.186Z,98641.88
2023-03-08T07:27:25.077Z,98672.06
2023-03-08T07:28:06.178Z,98672.53
2023-03-08T07:28:46.067Z,98664.69
2023-03-08T07:29:26.171Z,98663.34
2023-03-08T07:30:06.082Z,98680.41
2023-03-08T07:30:47.550Z,98685.66
2023-03-08T07:31:28.078Z,98650.88
2023-03-08T07:32:09.316Z,98669.38
2023-03-08T07:32:50.273Z,98653.00
2023-03-08T07:33:30.169Z,98657.81
2023-03-08T07:34:11.087Z,98658.97
2023-03-08T07:34:52.165Z,98673.66
2023-03-08T07:35:32.062Z,98662.47
2023-03-08T07:36:13.285Z,98680.41
2023-03-08T07:36:53.087Z,98662.44
2023-03-08T07:37:33.167Z,98654.94
2023-03-08T07:38:13.081Z,98680.88
2023-03-08T07:38:53.177Z,98664.03
2023-03-08T07:39:33.082Z,98661.00
2023-03-08T07:40:16.224Z,98675.19
2023-03-08T07:41:02.074Z,98661.22
2023-03-08T07:41:43.227Z,98677.44
2023-03-08T07:42:24.058Z,98670.03
2023-03-08T07:43:04.235Z,98684.25
2023-03-08T07:43:44.085Z,98674.19
2023-03-08T07:44:25.234Z,98676.75
2023-03-08T07:45:05.086Z,98681.97
2023-03-08T07:45:46.147Z,98665.38
2023-03-08T07:46:26.077Z,98677.03
2023-03-08T07:47:06.171Z,98691.72
2023-03-08T07:47:47.063Z,98684.97
2023-03-08T07:48:28.212Z,98660.97
2023-03-08T07:49:08.081Z,98652.50
2023-03-08T07:49:48.205Z,98655.38
2023-03-08T07:50:29.107Z,98678.63
2023-03-08T07:51:12.307Z,98674.97
2023-03-08T07:51:52.039Z,98690.47
2023-03-08T07:52:37.197Z,98687.41
2023-03-08T07:53:17.067Z,98702.06
2023-03-08T07:53:59.220Z,98681.94
2023-03-08T07:54:39.140Z,98693.00
2023-03-08T07:55:21.390Z,98672.78
2023-03-08T07:56:06.072Z,98685.63
2023-03-08T07:56:47.237Z,98667.53
2023-03-08T07:57:27.030Z,98678.53
2023-03-08T07:58:07.169Z,98684.44
2023-03-08T07:58:47.041Z,98660.19
2023-03-08T07:59:28.150Z,98657.09
2023-03-08T08:00:08.100Z,98655.38
2023-03-08T08:00:49.153Z,98671.94
2023-03-08T08:01:29.052Z,98678.59
2023-03-08T08:02:10.157Z,98670.63
2023-03-08T08:02:50.059Z,98659.34
2023-03-08T08:03:31.282Z,98656.59
2023-03-08T08:04:14.055Z,98673.28
2023-03-08T08:04:55.252Z,98681.59
2023-03-08T08:05:36.152Z,98668.50
2023-03-08T08:06:17.133Z,98679.03
2023-03-08T08:06:58.056Z,98684.47
2023-03-08T08:07:39.160Z,98670.47
2023-03-08T08:08:20.053Z,98680.22
2023-03-08T08:09:04.119Z,98681.56
2023-03-08T08:09:44.028Z,98669.91
2023-03-08T08:10:25.158Z,98680.56
2023-03-08T08:11:06.085Z,98671.75
2023-03-08T08:11:46.152Z,98695.72
2023-03-08T08:12:26.015Z,98670.97
2023-03-08T08:13:07.143Z,98676.22
2023-03-08T08:13:47.040Z,98699.97
2023-03-08T08:14:28.151Z,98680.41